Terminal Aerodrome Forecast
Issued by NWS

Home | Current Version | Previous Version | Text Only | Print | Product List | Glossary On
Versions: 1 2 3 4 5 6 7 8 9 10 11 12 13 14 15
000
FTUS46 KMTR 291100
TAFSTS
TAF
KSTS 291139Z 2912/3012 00000KT 3SM BR OVC003
      TEMPO 2913/2915 2SM BR BCFG OVC002
     FM291800 VRB03KT P6SM FEW004 SCT009
     FM292100 17009KT P6SM SKC
     FM300500 VRB03KT P6SM BKN005
     FM301000 VRB02KT P6SM OVC004=

USA.gov is the U.S. government's official web portal to all federal, state and local government web resources and services.